Aérodrome :
LOGIN :

S'inscrire | Disclaimer

   EN    FR    IT 

 










Légende :    VFR   VFR Marginal   IFR   IFR Intensif   IFR Très Intensif
Visi : 
Plafond : 
>= 8 km
>= 3000ft
5 à 8 km
1000 à 3000 ft
1500m à 5 km
500 à 1000 ft
800 à 1500m
200 à 500 ft
< 800m
< 200 ft
Symboles :   Orages  Brouillard  Fortes neiges  Fortes précipitations  Vent > 20 kt
SIGMETs :   Divers  Orages  Givrage  Turbulence  Onde Orograph.  Cendres Volcan.






- Altitude de l'aérodrome : 126 ft
- Code IATA : WIC


EGPC - Wick

DERNIER METAR :
  • 150150Z AUTO 26005KT 9999 NCD 01/M01 Q0973

METARs EXPIRÉS :
  • 150120Z AUTO 26004KT 9999 NCD 01/M02 Q0973
  • 150050Z AUTO 27004KT 9999 NCD 00/M02 Q0973
  • 150020Z AUTO 28005KT 9999 NCD 00/M02 Q0973
  • 142350Z AUTO 27004KT 9999 NCD 00/M02 Q0973
  • 142320Z AUTO 27004KT 9999 NCD 00/M01 Q0973

TAF TAF EGPC
Valide du 15 à 00h jusqu'au 15 à 09h UTC


142257Z 1500/1509 25009KT 9999 FEW030
ATIS : +44 1955 607 596



MET'MAP, la Météo Aéronautique d'un coup d'oeil ! - Copyright ORBIFLY Décembre 2007 - Disclaimer

ORBIFLY MET'MAP TEAM :

Programmation & Développement : Alexandra Zaïnal
Sur une idée originale de : Baudouin d'Aumeries
Assistance à la programmation : Marc-Olivier Méhu
Soutien technique & logistique : Manuel Goepfert

Contact : metmap@orbifly.com




SOURCES & CREDITS :

   NOAA